createdAt,value
2019-01-17T00:00:29.912Z,15.20
2019-01-17T00:03:16.445Z,6.97
2019-01-17T00:05:59.052Z,7.13
2019-01-17T00:08:35.532Z,7.87
2019-01-17T00:11:14.672Z,7.00
2019-01-17T00:13:51.079Z,8.97
2019-01-17T00:16:39.582Z,7.00
2019-01-17T00:19:16.075Z,6.27
2019-01-17T00:21:52.643Z,8.10
2019-01-17T00:24:39.460Z,8.07
2019-01-17T00:27:09.963Z,8.70
2019-01-17T00:29:56.617Z,5.90
2019-01-17T00:32:43.101Z,7.07
2019-01-17T00:35:13.698Z,8.67
2019-01-17T00:37:59.135Z,4.77
2019-01-17T00:40:32.348Z,5.83
2019-01-17T00:43:05.639Z,7.60
2019-01-17T00:45:39.002Z,5.77
2019-01-17T00:48:09.537Z,11.70
2019-01-17T00:50:45.905Z,5.17
2019-01-17T00:53:19.380Z,6.77
2019-01-17T00:55:55.671Z,6.83
2019-01-17T00:58:28.945Z,6.83
2019-01-17T01:01:02.282Z,6.03
2019-01-17T01:03:32.812Z,9.47
2019-01-17T01:06:09.108Z,7.07
2019-01-17T01:08:42.389Z,6.53
2019-01-17T01:11:12.987Z,11.93
2019-01-17T01:13:46.319Z,5.63
2019-01-17T01:16:19.725Z,7.20
2019-01-17T01:19:08.087Z,7.97
2019-01-17T01:21:42.296Z,6.93
2019-01-17T01:24:27.603Z,6.27
2019-01-17T01:26:58.199Z,7.27
2019-01-17T01:29:28.820Z,5.17
2019-01-17T01:32:02.137Z,6.87
2019-01-17T01:34:32.673Z,6.43
2019-01-17T01:37:05.793Z,5.87
2019-01-17T01:39:38.824Z,6.23
2019-01-17T01:42:09.430Z,7.93
2019-01-17T01:44:42.775Z,6.97
2019-01-17T01:47:15.864Z,9.83
2019-01-17T01:50:04.453Z,5.63
2019-01-17T01:52:37.772Z,6.13
2019-01-17T01:55:06.714Z,6.77
2019-01-17T01:57:35.712Z,6.73
2019-01-17T02:00:08.010Z,10.97
2019-01-17T02:02:37.005Z,7.27
2019-01-17T02:05:06.043Z,10.50
2019-01-17T02:07:35.046Z,19.20
2019-01-17T02:10:04.779Z,10.17
2019-01-17T02:12:33.719Z,10.90
2019-01-17T02:15:02.814Z,14.77
2019-01-17T02:17:31.840Z,13.37
2019-01-17T02:20:01.126Z,10.40
2019-01-17T02:22:30.089Z,11.90
2019-01-17T02:24:59.094Z,6.07
2019-01-17T02:27:28.020Z,14.07
2019-01-17T02:29:57.014Z,7.00
2019-01-17T02:32:26.043Z,9.53
2019-01-17T02:34:55.059Z,10.70
2019-01-17T02:37:23.988Z,7.13
2019-01-17T02:39:53.075Z,10.43
2019-01-17T02:42:22.007Z,8.83
2019-01-17T02:44:51.968Z,7.93
2019-01-17T02:47:20.901Z,6.77
2019-01-17T02:49:49.890Z,9.60
2019-01-17T02:52:18.828Z,9.20
2019-01-17T02:54:47.813Z,9.63
2019-01-17T02:57:16.734Z,7.33
2019-01-17T02:59:45.841Z,8.70
2019-01-17T03:02:14.866Z,7.23
2019-01-17T03:04:43.962Z,13.83
2019-01-17T03:07:12.896Z,8.60
2019-01-17T03:09:41.895Z,10.63
2019-01-17T03:12:10.832Z,8.27
2019-01-17T03:14:39.832Z,6.93
2019-01-17T03:17:08.766Z,7.57
2019-01-17T03:19:37.754Z,9.13
2019-01-17T03:22:06.789Z,7.23
2019-01-17T03:24:42.726Z,7.83
2019-01-17T03:27:06.270Z,10.23
2019-01-17T03:29:35.206Z,7.90
2019-01-17T03:32:04.282Z,7.17
2019-01-17T03:34:33.214Z,7.20
2019-01-17T03:37:02.207Z,13.37
2019-01-17T03:39:31.130Z,10.63
2019-01-17T03:42:00.124Z,8.10
2019-01-17T03:44:29.154Z,14.77
2019-01-17T03:46:58.146Z,8.10
2019-01-17T03:49:27.085Z,13.07
2019-01-17T03:51:56.193Z,9.53
2019-01-17T03:54:25.187Z,7.37
2019-01-17T03:56:54.328Z,11.37
2019-01-17T03:59:23.256Z,11.77
2019-01-17T04:01:52.265Z,8.87
2019-01-17T04:04:21.305Z,10.37
2019-01-17T04:06:50.301Z,10.27
2019-01-17T04:09:19.335Z,7.37
2019-01-17T04:11:48.444Z,11.53
2019-01-17T04:14:17.372Z,9.33
2019-01-17T04:16:46.366Z,10.80
2019-01-17T04:19:15.382Z,7.30
2019-01-17T04:21:44.512Z,10.80
2019-01-17T04:24:13.429Z,8.53
2019-01-17T04:26:42.466Z,16.30
2019-01-17T04:29:11.544Z,18.57
2019-01-17T04:31:40.573Z,12.20
2019-01-17T04:34:09.567Z,9.53
2019-01-17T04:36:38.509Z,25.60
2019-01-17T04:39:07.614Z,22.97
2019-01-17T04:41:36.540Z,12.60
2019-01-17T04:44:05.647Z,14.33
2019-01-17T04:46:34.579Z,15.27
2019-01-17T04:49:03.675Z,13.40
2019-01-17T04:51:32.607Z,14.20
2019-01-17T04:54:01.702Z,11.13
2019-01-17T04:56:30.639Z,16.83
2019-01-17T04:58:59.640Z,9.93
2019-01-17T05:01:28.570Z,14.43
2019-01-17T05:03:57.763Z,12.83
2019-01-17T05:06:26.797Z,10.63
2019-01-17T05:08:55.889Z,13.07
2019-01-17T05:11:24.932Z,10.20
2019-01-17T05:13:53.914Z,10.40
2019-01-17T05:16:22.946Z,10.50
2019-01-17T05:18:51.936Z,8.70
2019-01-17T05:21:20.861Z,8.70
2019-01-17T05:23:49.876Z,10.97
2019-01-17T05:26:21.648Z,10.30
2019-01-17T05:28:50.647Z,8.83
2019-01-17T05:31:19.570Z,8.80
2019-01-17T05:33:48.579Z,6.20
2019-01-17T05:36:17.520Z,10.20
2019-01-17T05:38:48.029Z,9.33
2019-01-17T05:41:17.039Z,7.33
2019-01-17T05:43:46.064Z,11.50
2019-01-17T05:46:15.068Z,10.27
2019-01-17T05:48:44.004Z,7.13
2019-01-17T05:51:13.115Z,9.27
2019-01-17T05:53:42.250Z,9.50
2019-01-17T05:56:11.345Z,8.50
2019-01-17T05:58:40.370Z,9.60
2019-01-17T06:01:09.515Z,7.17
2019-01-17T06:03:38.598Z,8.50
2019-01-17T06:06:07.706Z,8.00
2019-01-17T06:08:36.748Z,10.40
2019-01-17T06:11:05.956Z,8.10
2019-01-17T06:13:35.086Z,11.30
2019-01-17T06:16:04.796Z,8.40
2019-01-17T06:18:33.825Z,10.63
2019-01-17T06:21:02.840Z,6.83
2019-01-17T06:23:31.769Z,11.37
2019-01-17T06:26:00.856Z,7.15
2019-01-17T06:28:29.788Z,6.90
2019-01-17T06:30:58.818Z,8.83
2019-01-17T06:33:27.830Z,7.23
2019-01-17T06:35:56.939Z,8.27
2019-01-17T06:38:25.880Z,8.00
2019-01-17T06:40:54.871Z,8.80
2019-01-17T06:43:23.807Z,5.97
2019-01-17T06:45:52.800Z,6.97
2019-01-17T06:48:21.832Z,9.43
2019-01-17T06:50:50.821Z,5.73
2019-01-17T06:53:20.066Z,15.83
2019-01-17T06:55:49.068Z,7.60
2019-01-17T06:58:18.095Z,5.17
2019-01-17T07:00:47.127Z,7.43
2019-01-17T07:03:16.242Z,8.43
2019-01-17T07:05:45.293Z,9.25
2019-01-17T07:08:14.375Z,13.70
2019-01-17T07:10:43.440Z,7.87
2019-01-17T07:13:12.408Z,8.87
2019-01-17T07:15:41.442Z,9.13
2019-01-17T07:18:10.550Z,9.53
2019-01-17T07:20:39.496Z,9.93
2019-01-17T07:23:08.486Z,10.03
2019-01-17T07:25:40.965Z,8.20
2019-01-17T07:28:09.294Z,10.27
2019-01-17T07:30:38.230Z,6.73
2019-01-17T07:33:07.312Z,8.20
2019-01-17T07:35:37.419Z,11.93
2019-01-17T07:38:06.435Z,11.17
2019-01-17T07:40:35.373Z,9.33
2019-01-17T07:43:04.379Z,11.03
2019-01-17T07:45:33.314Z,12.93
2019-01-17T07:48:02.316Z,11.43
2019-01-17T07:50:31.262Z,10.43
2019-01-17T07:53:00.211Z,10.23
2019-01-17T07:55:29.289Z,9.03
2019-01-17T07:57:58.207Z,18.47
2019-01-17T08:00:27.212Z,11.67
2019-01-17T08:02:56.126Z,13.77
2019-01-17T08:05:25.229Z,17.50
2019-01-17T08:07:55.792Z,14.53
2019-01-17T08:10:24.906Z,15.73
2019-01-17T08:12:53.939Z,8.47
2019-01-17T08:15:23.063Z,12.00
2019-01-17T08:17:52.102Z,9.70
2019-01-17T08:20:22.887Z,7.37
2019-01-17T08:22:51.831Z,12.00
2019-01-17T08:25:20.939Z,12.53
2019-01-17T08:27:49.864Z,7.73
2019-01-17T08:30:21.154Z,10.10
2019-01-17T08:32:50.281Z,14.20
2019-01-17T08:35:19.275Z,18.27
2019-01-17T08:37:48.324Z,10.77
2019-01-17T08:40:31.100Z,12.17
2019-01-17T08:43:00.035Z,12.37
2019-01-17T08:45:29.138Z,9.53
2019-01-17T08:47:58.203Z,14.30
2019-01-17T08:50:28.014Z,10.13
2019-01-17T08:52:57.293Z,12.10
2019-01-17T08:55:26.354Z,7.67
2019-01-17T08:57:55.339Z,8.97
2019-01-17T09:00:26.861Z,11.47
2019-01-17T09:02:55.850Z,8.63
2019-01-17T09:05:24.769Z,10.37
2019-01-17T09:07:53.882Z,13.60
2019-01-17T09:10:25.252Z,8.77
2019-01-17T09:12:54.335Z,8.03
2019-01-17T09:15:29.204Z,10.10
2019-01-17T09:17:58.219Z,11.30
2019-01-17T09:20:27.421Z,9.27
2019-01-17T09:22:56.398Z,12.60
2019-01-17T09:25:25.432Z,10.43
2019-01-17T09:27:54.537Z,9.90
2019-01-17T09:30:23.571Z,10.17
2019-01-17T09:32:52.670Z,8.37
2019-01-17T09:35:21.813Z,9.50
2019-01-17T09:37:50.906Z,9.07
2019-01-17T09:40:23.394Z,7.87
2019-01-17T09:42:52.477Z,9.27
2019-01-17T09:45:21.524Z,8.93
2019-01-17T09:47:50.710Z,9.60
2019-01-17T09:50:21.646Z,9.13
2019-01-17T09:52:50.734Z,11.60
2019-01-17T09:55:19.652Z,8.37
2019-01-17T09:57:48.636Z,9.63
2019-01-17T10:00:26.576Z,7.80
2019-01-17T10:02:57.919Z,12.80
2019-01-17T10:05:26.499Z,9.73
2019-01-17T10:07:55.493Z,6.07
2019-01-17T10:10:25.630Z,7.40
2019-01-17T10:12:54.572Z,7.67
2019-01-17T10:15:29.758Z,6.13
2019-01-17T10:18:27.094Z,8.33
2019-01-17T10:21:15.264Z,8.00
2019-01-17T10:23:53.217Z,8.63
2019-01-17T10:26:33.974Z,6.57
2019-01-17T10:29:20.259Z,6.43
2019-01-17T10:32:04.921Z,5.23
2019-01-17T10:34:51.449Z,5.37
2019-01-17T10:37:32.209Z,4.93
2019-01-17T10:40:13.463Z,6.47
2019-01-17T10:42:51.181Z,4.13
2019-01-17T10:45:31.889Z,6.60
2019-01-17T10:48:09.760Z,4.53
2019-01-17T10:50:47.583Z,5.87
2019-01-17T10:53:19.757Z,3.53
2019-01-17T10:56:03.813Z,3.70
2019-01-17T10:58:38.672Z,5.17
2019-01-17T11:01:10.904Z,6.47
2019-01-17T11:03:57.668Z,3.93
2019-01-17T11:06:41.519Z,4.10
2019-01-17T11:09:25.366Z,3.03
2019-01-17T11:12:13.670Z,3.13
2019-01-17T11:14:51.774Z,4.20
2019-01-17T11:17:39.078Z,4.73
2019-01-17T11:20:17.206Z,3.23
2019-01-17T11:22:55.080Z,3.80
2019-01-17T11:25:27.199Z,4.50
2019-01-17T11:28:11.114Z,4.43
2019-01-17T11:30:46.318Z,5.97
2019-01-17T11:33:27.131Z,3.97
2019-01-17T11:36:14.148Z,9.43
2019-01-17T11:39:00.846Z,4.23
2019-01-17T11:41:32.962Z,6.57
2019-01-17T11:44:08.053Z,4.70
2019-01-17T11:47:16.391Z,5.43
2019-01-17T11:49:56.904Z,5.60
2019-01-17T11:52:34.749Z,3.73
2019-01-17T11:55:21.808Z,5.37
2019-01-17T11:58:11.839Z,3.87
2019-01-17T12:01:01.636Z,4.07
2019-01-17T12:03:45.947Z,5.27
2019-01-17T12:06:15.010Z,4.00
2019-01-17T12:08:44.002Z,3.97
2019-01-17T12:11:12.930Z,5.40
2019-01-17T12:13:41.932Z,3.63
2019-01-17T12:16:10.962Z,3.37
2019-01-17T12:18:40.063Z,5.17
2019-01-17T12:21:08.996Z,4.30
2019-01-17T12:23:37.990Z,5.93
2019-01-17T12:26:07.032Z,3.17
2019-01-17T12:28:36.026Z,6.07
2019-01-17T12:31:04.955Z,3.73
2019-01-17T12:33:33.952Z,3.07
2019-01-17T12:36:02.872Z,1.63
2019-01-17T12:38:31.871Z,4.50
2019-01-17T12:41:00.896Z,4.30
2019-01-17T12:43:29.912Z,1.20
2019-01-17T12:45:58.928Z,1.90
2019-01-17T12:48:27.944Z,1.60
2019-01-17T12:50:56.970Z,1.67
2019-01-17T12:53:26.003Z,2.67
2019-01-17T12:55:55.023Z,5.07
2019-01-17T12:58:24.027Z,4.17
2019-01-17T13:00:52.960Z,2.77
2019-01-17T13:03:22.052Z,3.60
2019-01-17T13:05:50.980Z,2.50
2019-01-17T13:08:19.961Z,1.80
2019-01-17T13:10:48.910Z,1.70
2019-01-17T13:13:17.895Z,3.10
2019-01-17T13:15:46.841Z,2.00
2019-01-17T13:18:15.955Z,4.10
2019-01-17T13:20:45.129Z,2.23
2019-01-17T13:23:14.220Z,4.47
2019-01-17T13:25:43.250Z,2.10
2019-01-17T13:28:12.341Z,2.87
2019-01-17T13:30:41.353Z,2.23
2019-01-17T13:33:10.343Z,5.00
2019-01-17T13:35:39.377Z,2.13
2019-01-17T13:38:08.411Z,3.60
2019-01-17T13:40:37.558Z,3.70
2019-01-17T13:43:06.642Z,2.23
2019-01-17T13:45:35.685Z,2.90
2019-01-17T13:48:04.720Z,2.73
2019-01-17T13:50:34.474Z,2.03
2019-01-17T13:53:03.564Z,4.20
2019-01-17T13:55:32.664Z,1.73
2019-01-17T13:58:01.723Z,2.97
2019-01-17T14:00:30.825Z,4.10
2019-01-17T14:02:59.860Z,2.70
2019-01-17T14:05:28.977Z,3.50
2019-01-17T14:07:58.011Z,4.27
2019-01-17T14:10:27.124Z,4.40
2019-01-17T14:12:56.156Z,3.57
2019-01-17T14:15:30.518Z,12.60
2019-01-17T14:17:59.555Z,3.17
2019-01-17T14:20:28.586Z,3.53
2019-01-17T14:22:57.532Z,2.73
2019-01-17T14:25:26.535Z,3.10
2019-01-17T14:27:55.471Z,1.50
2019-01-17T14:30:30.342Z,1.70
2019-01-17T14:32:59.250Z,2.00
2019-01-17T14:35:28.225Z,2.43
2019-01-17T14:37:57.248Z,2.20
2019-01-17T14:40:26.357Z,4.63
2019-01-17T14:42:55.280Z,3.57
2019-01-17T14:45:24.279Z,3.40
2019-01-17T14:47:53.192Z,3.33
2019-01-17T14:50:24.483Z,2.30
2019-01-17T14:52:53.634Z,2.33
2019-01-17T14:55:22.725Z,3.53
2019-01-17T14:57:51.657Z,3.33
2019-01-17T15:00:29.292Z,5.87
2019-01-17T15:02:58.220Z,3.60
2019-01-17T15:05:27.314Z,2.30
2019-01-17T15:07:56.476Z,1.87
2019-01-17T15:10:28.576Z,4.23
2019-01-17T15:12:57.631Z,3.30
2019-01-17T15:15:26.732Z,2.73
2019-01-17T15:17:55.774Z,2.03
2019-01-17T15:20:24.874Z,3.80
2019-01-17T15:22:53.895Z,4.83
2019-01-17T15:25:23.017Z,3.17
2019-01-17T15:27:51.973Z,5.33
2019-01-17T15:30:25.808Z,4.23
2019-01-17T15:32:55.050Z,3.20
2019-01-17T15:35:24.094Z,3.33
2019-01-17T15:37:53.227Z,4.20
2019-01-17T15:40:26.969Z,5.80
2019-01-17T15:42:56.164Z,5.80
2019-01-17T15:45:25.194Z,1.80
2019-01-17T15:47:54.344Z,4.13
2019-01-17T15:50:23.347Z,3.80
2019-01-17T15:52:52.356Z,1.60
2019-01-17T15:55:21.371Z,3.57
2019-01-17T15:57:50.467Z,2.37
2019-01-17T16:00:24.880Z,4.30
2019-01-17T16:02:53.994Z,3.90
2019-01-17T16:05:23.033Z,2.87
2019-01-17T16:07:52.024Z,5.92
2019-01-17T16:10:21.051Z,2.70
2019-01-17T16:12:50.077Z,6.00
2019-01-17T16:15:23.881Z,5.28
2019-01-17T16:17:52.924Z,2.07
2019-01-17T16:20:21.873Z,3.10
2019-01-17T16:22:50.991Z,4.37
2019-01-17T16:25:19.960Z,2.77
2019-01-17T16:27:53.008Z,1.70
2019-01-17T16:30:28.031Z,3.00
2019-01-17T16:32:57.031Z,2.03
2019-01-17T16:35:25.951Z,1.77
2019-01-17T16:37:55.045Z,2.43
2019-01-17T16:40:23.994Z,2.53
2019-01-17T16:42:53.134Z,5.07
2019-01-17T16:45:23.676Z,3.93
2019-01-17T16:47:52.850Z,2.50
2019-01-17T16:50:24.230Z,2.83
2019-01-17T16:52:53.219Z,4.65
2019-01-17T16:55:22.351Z,4.60
2019-01-17T16:57:51.344Z,3.40
2019-01-17T17:00:37.674Z,2.73
2019-01-17T17:06:34.878Z,3.97
2019-01-17T17:09:05.365Z,3.23
2019-01-17T17:11:34.416Z,6.83
2019-01-17T17:14:03.499Z,4.13
2019-01-17T17:16:32.554Z,1.60
2019-01-17T17:19:01.549Z,4.13
2019-01-17T17:21:30.755Z,2.73
2019-01-17T17:23:59.843Z,3.07
2019-01-17T17:26:28.766Z,4.87
2019-01-17T17:28:57.751Z,5.23
2019-01-17T17:31:26.798Z,1.80
2019-01-17T17:33:57.148Z,1.43
2019-01-17T17:36:26.032Z,1.97
2019-01-17T17:38:55.026Z,3.50
2019-01-17T17:41:24.263Z,3.30
2019-01-17T17:43:53.390Z,3.30
2019-01-17T17:46:22.318Z,3.10
2019-01-17T17:48:51.361Z,7.57
2019-01-17T17:51:20.439Z,1.60
2019-01-17T17:53:49.371Z,1.43
2019-01-17T17:56:18.471Z,4.30
2019-01-17T17:58:47.404Z,3.80
2019-01-17T18:01:17.285Z,1.93
2019-01-17T18:03:46.346Z,1.60
2019-01-17T18:06:15.315Z,1.90
2019-01-17T18:08:44.342Z,3.13
2019-01-17T18:11:13.346Z,3.70
2019-01-17T18:13:42.371Z,3.40
2019-01-17T18:16:11.357Z,1.50
2019-01-17T18:18:40.517Z,2.00
2019-01-17T18:21:09.623Z,2.90
2019-01-17T18:23:38.550Z,1.77
2019-01-17T18:26:07.531Z,2.93
2019-01-17T18:28:36.769Z,2.10
2019-01-17T18:31:05.781Z,1.73
2019-01-17T18:33:37.690Z,5.87
2019-01-17T18:36:06.895Z,2.67
2019-01-17T18:38:36.968Z,2.80
2019-01-17T18:41:05.954Z,2.07
2019-01-17T18:43:34.975Z,3.33
2019-01-17T18:46:03.983Z,1.80
2019-01-17T18:48:32.883Z,4.00
2019-01-17T18:51:01.918Z,1.97
2019-01-17T18:53:31.009Z,3.63
2019-01-17T18:55:59.919Z,1.73
2019-01-17T18:58:28.914Z,1.80
2019-01-17T19:00:57.951Z,1.77
2019-01-17T19:03:26.942Z,1.57
2019-01-17T19:06:10.533Z,2.07
2019-01-17T19:08:36.921Z,1.50
2019-01-17T19:11:09.047Z,4.13
2019-01-17T19:13:49.891Z,1.80
2019-01-17T19:16:18.898Z,3.27
2019-01-17T19:18:47.884Z,2.30
2019-01-17T19:21:16.835Z,2.00
2019-01-17T19:23:45.947Z,2.00
2019-01-17T19:26:14.876Z,4.50
2019-01-17T19:28:44.046Z,2.60
2019-01-17T19:31:13.200Z,2.37
2019-01-17T19:33:42.155Z,3.30
2019-01-17T19:36:11.135Z,2.67
2019-01-17T19:38:40.086Z,2.33
2019-01-17T19:41:09.000Z,2.37
2019-01-17T19:43:37.984Z,3.50
2019-01-17T19:46:07.002Z,3.20
2019-01-17T19:48:36.004Z,4.23
2019-01-17T19:51:04.928Z,4.20
2019-01-17T19:53:33.930Z,3.30
2019-01-17T19:56:02.951Z,4.00
2019-01-17T19:58:31.937Z,3.80
2019-01-17T20:01:00.957Z,3.20
2019-01-17T20:03:30.155Z,4.00
2019-01-17T20:05:59.074Z,3.33
2019-01-17T20:08:28.161Z,4.03
2019-01-17T20:10:57.104Z,6.93
2019-01-17T20:13:26.213Z,5.03
2019-01-17T20:15:55.241Z,5.03
2019-01-17T20:18:24.243Z,4.50
2019-01-17T20:20:53.262Z,4.77
2019-01-17T20:23:22.274Z,8.50
2019-01-17T20:25:51.191Z,5.23
2019-01-17T20:28:20.282Z,6.33
2019-01-17T20:30:49.206Z,5.87
2019-01-17T20:33:18.240Z,5.40
2019-01-17T20:35:47.264Z,5.73
2019-01-17T20:38:16.204Z,5.30
2019-01-17T20:40:45.190Z,5.03
2019-01-17T20:43:14.111Z,4.47
2019-01-17T20:45:43.197Z,4.70
2019-01-17T20:48:12.342Z,7.70
2019-01-17T20:50:41.526Z,5.27
2019-01-17T20:53:10.454Z,4.50
2019-01-17T20:55:39.448Z,8.87
2019-01-17T20:58:08.371Z,5.70
2019-01-17T21:00:46.111Z,4.90
2019-01-17T21:03:16.951Z,6.07
2019-01-17T21:05:45.945Z,9.30
2019-01-17T21:08:14.862Z,5.60
2019-01-17T21:10:44.066Z,4.97
2019-01-17T21:13:12.994Z,5.97
2019-01-17T21:15:42.064Z,5.63
2019-01-17T21:18:10.991Z,4.97
2019-01-17T21:20:39.986Z,5.37
2019-01-17T21:23:08.905Z,6.33
2019-01-17T21:25:37.890Z,5.00
2019-01-17T21:28:06.818Z,4.93
2019-01-17T21:30:35.799Z,7.30
2019-01-17T21:33:07.080Z,7.77
2019-01-17T21:35:35.236Z,5.87
2019-01-17T21:38:04.159Z,7.30
2019-01-17T21:40:33.149Z,7.23
2019-01-17T21:43:02.081Z,6.87
2019-01-17T21:45:31.183Z,6.43
2019-01-17T21:48:00.092Z,5.73
2019-01-17T21:50:31.343Z,8.23
2019-01-17T21:53:00.267Z,6.17
2019-01-17T21:55:29.261Z,7.13
2019-01-17T21:57:58.175Z,8.23
2019-01-17T22:00:29.365Z,9.40
2019-01-17T22:02:58.491Z,9.07
2019-01-17T22:05:27.411Z,8.17
2019-01-17T22:07:56.409Z,8.00
2019-01-17T22:10:25.337Z,10.03
2019-01-17T22:12:54.336Z,8.13
2019-01-17T22:15:27.030Z,7.43
2019-01-17T22:17:56.131Z,8.53
2019-01-17T22:20:25.056Z,7.23
2019-01-17T22:22:54.164Z,12.53
2019-01-17T22:25:23.083Z,12.10
2019-01-17T22:27:53.372Z,8.97
2019-01-17T22:30:27.692Z,9.03
2019-01-17T22:32:56.886Z,7.40
2019-01-17T22:35:25.911Z,9.90
2019-01-17T22:37:54.900Z,10.17
2019-01-17T22:40:23.939Z,8.10
2019-01-17T22:42:52.915Z,6.77
2019-01-17T22:45:30.372Z,6.53
2019-01-17T22:47:59.370Z,3.30
2019-01-17T22:50:28.307Z,4.20
2019-01-17T22:52:57.307Z,4.13
2019-01-17T22:55:26.326Z,3.50
2019-01-17T22:57:55.422Z,3.33
2019-01-17T23:00:52.423Z,5.57
2019-01-17T23:03:24.089Z,3.90
2019-01-17T23:05:53.008Z,4.30
2019-01-17T23:08:22.002Z,6.17
2019-01-17T23:10:50.927Z,5.13
2019-01-17T23:13:19.912Z,6.10
2019-01-17T23:15:48.843Z,6.17
2019-01-17T23:18:17.785Z,6.03
2019-01-17T23:20:46.761Z,4.50
2019-01-17T23:23:15.689Z,6.43
2019-01-17T23:25:44.683Z,5.37
2019-01-17T23:28:13.617Z,4.73
2019-01-17T23:30:42.596Z,5.87
2019-01-17T23:33:11.525Z,10.67
2019-01-17T23:35:40.523Z,6.00
2019-01-17T23:38:09.456Z,10.27
2019-01-17T23:40:38.451Z,6.10
2019-01-17T23:43:07.374Z,7.43
2019-01-17T23:45:36.350Z,5.83
2019-01-17T23:48:05.274Z,8.50
2019-01-17T23:50:34.268Z,7.23
2019-01-17T23:53:03.204Z,8.30
2019-01-17T23:55:32.194Z,7.30
2019-01-17T23:58:01.118Z,6.13
